Terminal Aerodrome Forecast
Issued by NWS

Home | Current Version | Previous Version | Text Only | Print | Product List | Glossary On
Versions: 1 2 3 4 5 6 7 8 9 10 11 12 13 14 15 16 17 18
527
FTUS41 KBTV 270317 AAB
TAFMSS
TAF AMD
KMSS 270317Z 2703/2724 VRB04KT P6SM VCSH OVC050
      TEMPO 2703/2705 4SM RA BR BKN030
     FM270500 00000KT P6SM SCT140
     FM271300 21006KT P6SM VCSH BKN060
     FM271600 22008KT 4SM -SHRA BR BKN040
     FM272000 23009KT P6SM VCSH BKN080
     FM272200 23009KT P6SM SCT100=

USA.gov is the U.S. government's official web portal to all federal, state and local government web resources and services.